Terminal Aerodrome Forecast
Issued by NWS

Home | Current Version | Previous Version | Text Only | Print | Product List | Glossary On
Versions: 1 2 3 4 5 6 7 8 9 10 11 12 13 14 15 16 17 18 19 20 21 22 23 24 25 26 27
000
FTUS43 KDMX 282104 AAG
TAFOTM
TAF AMD
KOTM 282104Z 2821/2918 19016KT P6SM VCSH SCT040 BKN050
     FM282200 20012KT P6SM VCSH BKN020 BKN030
     FM282300 21011KT P6SM VCTS BKN030CB
     FM290100 23009KT P6SM SCT040
     FM291500 28006KT P6SM FEW250=

USA.gov is the U.S. government's official web portal to all federal, state and local government web resources and services.